createdAt,value
2019-01-17T00:00:24.054Z,991.25
2019-01-17T00:01:33.857Z,991.29
2019-01-17T00:02:43.901Z,991.27
2019-01-17T00:03:54.048Z,991.25
2019-01-17T00:05:04.118Z,991.26
2019-01-17T00:06:14.187Z,991.22
2019-01-17T00:07:24.233Z,991.19
2019-01-17T00:08:34.282Z,991.2
2019-01-17T00:09:44.347Z,991.21
2019-01-17T00:10:54.403Z,991.19
2019-01-17T00:12:05.760Z,991.21
2019-01-17T00:13:15.904Z,991.22
2019-01-17T00:14:25.956Z,991.19
2019-01-17T00:15:35.734Z,991.18
2019-01-17T00:16:45.789Z,991.19
2019-01-17T00:17:55.934Z,991.19
2019-01-17T00:19:08.164Z,991.14
2019-01-17T00:20:18.240Z,991.13
2019-01-17T00:21:28.285Z,991.08
2019-01-17T00:22:38.091Z,991.1
2019-01-17T00:23:47.391Z,991.06
2019-01-17T00:25:03.215Z,990.99
2019-01-17T00:26:13.250Z,991.03
2019-01-17T00:27:23.073Z,990.95
2019-01-17T00:28:33.114Z,990.96
2019-01-17T00:29:43.149Z,991.01
2019-01-17T00:30:52.950Z,990.95
2019-01-17T00:32:02.781Z,990.96
2019-01-17T00:33:12.886Z,990.96
2019-01-17T00:34:22.955Z,990.92
2019-01-17T00:35:32.487Z,990.9
2019-01-17T00:36:42.529Z,990.88
2019-01-17T00:37:52.580Z,990.88
2019-01-17T00:39:02.669Z,990.81
2019-01-17T00:40:12.814Z,990.86
2019-01-17T00:41:22.343Z,990.88
2019-01-17T00:42:32.423Z,990.87
2019-01-17T00:43:42.537Z,990.87
2019-01-17T00:44:52.591Z,990.86
2019-01-17T00:46:02.471Z,990.89
2019-01-17T00:47:12.525Z,990.86
2019-01-17T00:48:22.321Z,990.86
2019-01-17T00:49:32.835Z,990.92
2019-01-17T00:50:42.986Z,990.9
2019-01-17T00:51:53.053Z,990.92
2019-01-17T00:53:03.258Z,990.94
2019-01-17T00:54:13.059Z,990.95
2019-01-17T00:55:22.626Z,990.97
2019-01-17T00:56:33.165Z,990.93
2019-01-17T00:57:43.220Z,990.99
2019-01-17T00:58:53.017Z,990.92
2019-01-17T01:00:06.211Z,990.85
2019-01-17T01:01:16.608Z,990.92
2019-01-17T01:02:26.447Z,990.92
2019-01-17T01:03:36.491Z,990.95
2019-01-17T01:04:46.260Z,990.92
2019-01-17T01:05:56.307Z,990.93
2019-01-17T01:07:06.375Z,990.97
2019-01-17T01:08:15.957Z,990.94
2019-01-17T01:09:25.795Z,990.93
2019-01-17T01:10:35.850Z,990.96
2019-01-17T01:11:45.943Z,990.93
2019-01-17T01:12:55.993Z,990.93
2019-01-17T01:14:06.079Z,990.92
2019-01-17T01:15:16.129Z,990.89
2019-01-17T01:16:26.163Z,990.92
2019-01-17T01:17:36.214Z,990.94
2019-01-17T01:18:46.261Z,990.95
2019-01-17T01:19:56.101Z,990.94
2019-01-17T01:21:05.888Z,990.97
2019-01-17T01:22:15.933Z,991
2019-01-17T01:23:25.723Z,990.93
2019-01-17T01:24:35.768Z,990.87
2019-01-17T01:25:45.865Z,990.89
2019-01-17T01:26:55.915Z,990.98
2019-01-17T01:28:05.964Z,990.94
2019-01-17T01:29:15.746Z,990.91
2019-01-17T01:30:25.825Z,990.84
2019-01-17T01:31:35.920Z,990.86
2019-01-17T01:32:45.966Z,990.86
2019-01-17T01:33:56.016Z,990.85
2019-01-17T01:35:05.809Z,990.78
2019-01-17T01:36:15.592Z,990.88
2019-01-17T01:37:25.648Z,990.91
2019-01-17T01:38:35.785Z,990.78
2019-01-17T01:39:45.590Z,990.87
2019-01-17T01:40:55.135Z,990.84
2019-01-17T01:42:05.184Z,990.75
2019-01-17T01:43:15.260Z,990.7
2019-01-17T01:44:25.285Z,990.74
2019-01-17T01:45:35.391Z,990.69
2019-01-17T01:46:45.199Z,990.69
2019-01-17T01:47:55.243Z,990.66
2019-01-17T01:49:05.356Z,990.65
2019-01-17T01:50:15.412Z,990.62
2019-01-17T01:51:25.204Z,990.61
2019-01-17T01:52:35.253Z,990.59
2019-01-17T01:53:45.419Z,990.59
2019-01-17T01:54:55.475Z,990.59
2019-01-17T01:56:05.569Z,990.57
2019-01-17T01:57:15.638Z,990.57
2019-01-17T01:58:25.670Z,990.51
2019-01-17T01:59:35.754Z,990.54
2019-01-17T02:00:45.873Z,990.6
2019-01-17T02:01:55.904Z,990.61
2019-01-17T02:03:05.701Z,990.59
2019-01-17T02:04:15.502Z,990.64
2019-01-17T02:05:25.553Z,990.59
2019-01-17T02:06:35.603Z,990.57
2019-01-17T02:07:45.653Z,990.59
2019-01-17T02:08:55.700Z,990.56
2019-01-17T02:10:06.743Z,990.57
2019-01-17T02:11:16.797Z,990.57
2019-01-17T02:12:26.592Z,990.64
2019-01-17T02:13:36.651Z,990.73
2019-01-17T02:14:46.472Z,990.78
2019-01-17T02:15:56.525Z,990.79
2019-01-17T02:17:06.086Z,990.82
2019-01-17T02:18:16.130Z,990.79
2019-01-17T02:19:26.182Z,990.64
2019-01-17T02:20:36.014Z,990.56
2019-01-17T02:21:46.055Z,990.48
2019-01-17T02:22:56.094Z,990.45
2019-01-17T02:24:05.926Z,990.54
2019-01-17T02:25:15.973Z,990.58
2019-01-17T02:26:25.759Z,990.55
2019-01-17T02:27:35.818Z,990.47
2019-01-17T02:28:45.604Z,990.48
2019-01-17T02:29:55.666Z,990.53
2019-01-17T02:31:05.460Z,990.49
2019-01-17T02:32:15.270Z,990.52
2019-01-17T02:33:25.310Z,990.49
2019-01-17T02:34:35.423Z,990.47
2019-01-17T02:35:45.475Z,990.47
2019-01-17T02:36:55.530Z,990.47
2019-01-17T02:38:05.327Z,990.49
2019-01-17T02:39:15.123Z,990.51
2019-01-17T02:40:24.913Z,990.51
2019-01-17T02:41:35.023Z,990.56
2019-01-17T02:42:45.069Z,990.56
2019-01-17T02:43:55.114Z,990.56
2019-01-17T02:45:05.176Z,990.56
2019-01-17T02:46:14.979Z,990.64
2019-01-17T02:47:24.825Z,990.64
2019-01-17T02:48:34.862Z,990.67
2019-01-17T02:49:44.900Z,990.69
2019-01-17T02:50:54.719Z,990.63
2019-01-17T02:52:04.770Z,990.58
2019-01-17T02:53:14.826Z,990.55
2019-01-17T02:54:24.870Z,990.65
2019-01-17T02:55:41.034Z,990.7
2019-01-17T02:56:50.851Z,990.62
2019-01-17T02:58:00.786Z,990.57
2019-01-17T02:59:10.828Z,990.53
2019-01-17T03:00:21.030Z,990.54
2019-01-17T03:01:31.136Z,990.53
2019-01-17T03:02:41.203Z,990.5
2019-01-17T03:34:20.984Z,990.17
2019-01-17T03:35:31.854Z,990.13
2019-01-17T03:36:41.898Z,990.19
2019-01-17T03:37:51.933Z,990.13
2019-01-17T03:39:02.017Z,990.18
2019-01-17T03:40:12.083Z,990.1
2019-01-17T03:41:21.876Z,990.05
2019-01-17T03:42:31.678Z,990.1
2019-01-17T03:43:41.730Z,990.05
2019-01-17T03:44:51.809Z,990.04
2019-01-17T03:46:01.623Z,990.06
2019-01-17T03:47:11.419Z,990.02
2019-01-17T03:48:21.478Z,990.05
2019-01-17T03:49:31.262Z,990
2019-01-17T03:50:41.304Z,989.95
2019-01-17T03:51:51.367Z,989.87
2019-01-17T03:53:01.504Z,989.97
2019-01-17T03:54:11.556Z,990.02
2019-01-17T03:55:21.618Z,989.85
2019-01-17T03:56:31.666Z,989.89
2019-01-17T03:57:42.784Z,990.01
2019-01-17T03:58:52.586Z,989.92
2019-01-17T04:00:02.837Z,989.91
2019-01-17T04:01:13.548Z,990.05
2019-01-17T04:02:23.602Z,989.99
2019-01-17T04:03:33.742Z,990.04
2019-01-17T04:04:43.817Z,990.01
2019-01-17T04:05:53.867Z,990.09
2019-01-17T04:07:04.017Z,990.1
2019-01-17T04:08:14.097Z,990.04
2019-01-17T04:09:24.189Z,989.98
2019-01-17T04:10:34.000Z,989.97
2019-01-17T04:11:44.112Z,989.97
2019-01-17T04:12:54.153Z,989.94
2019-01-17T04:14:04.204Z,989.99
2019-01-17T04:15:14.059Z,989.98
2019-01-17T04:16:24.096Z,990.02
2019-01-17T04:17:34.137Z,990
2019-01-17T04:18:44.181Z,990.03
2019-01-17T04:19:53.977Z,990.08
2019-01-17T04:21:04.084Z,990.01
2019-01-17T04:22:13.881Z,990.01
2019-01-17T04:23:23.940Z,990.05
2019-01-17T04:24:33.989Z,990.08
2019-01-17T04:25:44.050Z,990.09
2019-01-17T04:26:55.623Z,990.11
2019-01-17T04:28:05.676Z,990.08
2019-01-17T04:29:15.715Z,990.1
2019-01-17T04:30:25.814Z,990.11
2019-01-17T04:31:35.618Z,990.11
2019-01-17T04:32:45.717Z,990.12
2019-01-17T04:33:55.774Z,990.23
2019-01-17T04:35:05.810Z,990.14
2019-01-17T04:36:15.618Z,990.15
2019-01-17T04:37:25.676Z,990.27
2019-01-17T04:38:35.733Z,990.17
2019-01-17T04:39:45.768Z,990.11
2019-01-17T04:40:55.849Z,990.24
2019-01-17T04:42:07.545Z,990.13
2019-01-17T04:43:17.596Z,990.06
2019-01-17T04:44:27.382Z,990.1
2019-01-17T04:45:37.246Z,990.11
2019-01-17T04:46:47.027Z,990.15
2019-01-17T04:47:56.828Z,990.12
2019-01-17T04:49:06.965Z,990.12
2019-01-17T04:50:17.149Z,990.2
2019-01-17T04:51:27.199Z,990.3
2019-01-17T04:52:37.001Z,990.31
2019-01-17T04:53:47.143Z,990.3
2019-01-17T04:54:57.196Z,990.3
2019-01-17T04:56:13.177Z,990.34
2019-01-17T04:57:23.224Z,990.31
2019-01-17T04:58:33.278Z,990.35
2019-01-17T04:59:43.339Z,990.36
2019-01-17T05:00:53.377Z,990.36
2019-01-17T05:02:06.068Z,990.34
2019-01-17T05:03:16.157Z,990.38
2019-01-17T05:04:25.722Z,990.38
2019-01-17T05:05:35.782Z,990.41
2019-01-17T05:06:45.311Z,990.42
2019-01-17T05:07:55.405Z,990.45
2019-01-17T05:09:08.471Z,990.4
2019-01-17T05:10:18.533Z,990.42
2019-01-17T05:11:28.580Z,990.39
2019-01-17T05:12:38.637Z,990.38
2019-01-17T05:13:48.426Z,990.39
2019-01-17T05:14:58.480Z,990.42
2019-01-17T05:16:08.542Z,990.38
2019-01-17T05:17:18.590Z,990.32
2019-01-17T05:18:28.643Z,990.35
2019-01-17T05:19:38.687Z,990.32
2019-01-17T05:20:48.746Z,990.37
2019-01-17T05:21:58.809Z,990.31
2019-01-17T05:23:08.868Z,990.37
2019-01-17T05:24:18.927Z,990.37
2019-01-17T05:25:29.054Z,990.39
2019-01-17T05:26:39.115Z,990.4
2019-01-17T05:27:49.181Z,990.44
2019-01-17T05:28:59.003Z,990.45
2019-01-17T05:30:09.056Z,990.44
2019-01-17T05:31:19.123Z,990.43
2019-01-17T05:32:28.915Z,990.46
2019-01-17T05:33:44.194Z,990.49
2019-01-17T05:34:54.220Z,990.53
2019-01-17T05:36:05.983Z,990.58
2019-01-17T05:37:16.057Z,990.61
2019-01-17T05:38:26.104Z,990.62
2019-01-17T05:39:35.905Z,990.57
2019-01-17T05:40:45.943Z,990.61
2019-01-17T05:41:55.999Z,990.58
2019-01-17T05:43:06.077Z,990.64
2019-01-17T05:44:15.876Z,990.62
2019-01-17T05:45:25.928Z,990.61
2019-01-17T05:46:35.971Z,990.57
2019-01-17T05:47:45.742Z,990.52
2019-01-17T05:48:55.838Z,990.54
2019-01-17T05:50:05.885Z,990.52
2019-01-17T05:51:15.923Z,990.51
2019-01-17T05:52:25.970Z,990.49
2019-01-17T05:53:35.746Z,990.46
2019-01-17T05:54:45.811Z,990.43
2019-01-17T05:55:55.613Z,990.41
2019-01-17T05:57:06.264Z,990.39
2019-01-17T05:58:15.808Z,990.42
2019-01-17T05:59:25.582Z,990.44
2019-01-17T06:00:36.851Z,990.47
2019-01-17T06:01:46.904Z,990.49
2019-01-17T06:02:56.723Z,990.51
2019-01-17T06:04:06.776Z,990.51
2019-01-17T06:05:16.829Z,990.48
2019-01-17T06:06:32.820Z,990.44
2019-01-17T06:07:42.955Z,990.43
2019-01-17T06:08:53.000Z,990.43
2019-01-17T06:10:05.845Z,990.4
2019-01-17T06:11:15.901Z,990.42
2019-01-17T06:12:25.933Z,990.41
2019-01-17T06:13:36.033Z,990.42
2019-01-17T06:14:46.074Z,990.42
2019-01-17T06:15:56.138Z,990.41
2019-01-17T06:17:07.640Z,990.42
2019-01-17T06:18:17.428Z,990.47
2019-01-17T06:19:27.250Z,990.41
2019-01-17T06:20:37.321Z,990.37
2019-01-17T06:21:47.135Z,990.38
2019-01-17T06:22:57.224Z,990.39
2019-01-17T06:24:07.279Z,990.46
2019-01-17T06:25:17.061Z,990.46
2019-01-17T06:26:35.645Z,990.49
2019-01-17T06:27:45.689Z,990.5
2019-01-17T06:28:55.524Z,990.52
2019-01-17T06:30:08.284Z,990.55
2019-01-17T06:31:18.330Z,990.58
2019-01-17T06:32:28.383Z,990.57
2019-01-17T06:33:38.167Z,990.6
2019-01-17T06:34:47.985Z,990.54
2019-01-17T06:35:58.046Z,990.51
2019-01-17T06:37:08.100Z,990.49
2019-01-17T06:38:17.881Z,990.51
2019-01-17T06:39:27.682Z,990.53
2019-01-17T06:40:37.709Z,990.55
2019-01-17T06:41:47.760Z,990.6
2019-01-17T06:42:57.309Z,990.64
2019-01-17T06:44:07.105Z,990.6
2019-01-17T06:45:23.288Z,990.63
2019-01-17T06:46:32.872Z,990.65
2019-01-17T06:47:42.650Z,990.69
2019-01-17T06:48:52.713Z,990.68
2019-01-17T06:50:02.753Z,990.68
2019-01-17T06:51:12.554Z,990.7
2019-01-17T06:52:22.335Z,990.74
2019-01-17T06:53:32.448Z,990.78
2019-01-17T06:54:42.495Z,990.83
2019-01-17T06:55:52.547Z,990.78
2019-01-17T06:57:02.604Z,990.79
2019-01-17T06:58:12.708Z,990.72
2019-01-17T06:59:22.751Z,990.77
2019-01-17T07:00:32.853Z,990.81
2019-01-17T07:01:42.940Z,990.77
2019-01-17T07:02:52.984Z,990.88
2019-01-17T07:04:03.117Z,990.88
2019-01-17T07:05:13.175Z,990.88
2019-01-17T07:06:23.227Z,990.87
2019-01-17T07:07:33.481Z,990.94
2019-01-17T07:08:43.527Z,990.95
2019-01-17T07:09:53.643Z,990.97
2019-01-17T07:11:05.910Z,990.93
2019-01-17T07:12:15.954Z,990.95
2019-01-17T07:13:25.737Z,990.99
2019-01-17T07:14:35.275Z,990.96
2019-01-17T07:15:45.326Z,991.03
2019-01-17T07:16:55.366Z,991.01
2019-01-17T07:18:05.296Z,990.97
2019-01-17T07:19:15.335Z,991.02
2019-01-17T07:20:25.386Z,991.02
2019-01-17T07:21:35.175Z,991.07
2019-01-17T07:22:45.216Z,990.97
2019-01-17T07:23:55.257Z,991.04
2019-01-17T07:25:05.301Z,991.01
2019-01-17T07:26:15.350Z,990.95
2019-01-17T07:27:25.146Z,991.01
2019-01-17T07:28:34.924Z,991.08
2019-01-17T07:29:45.002Z,991.02
2019-01-17T07:30:55.058Z,991.06
2019-01-17T07:32:04.839Z,991.04
2019-01-17T07:33:14.877Z,990.96
2019-01-17T07:34:24.912Z,990.97
2019-01-17T07:35:34.950Z,990.97
2019-01-17T07:36:45.005Z,990.96
2019-01-17T07:37:54.540Z,990.93
2019-01-17T07:39:04.690Z,990.88
2019-01-17T07:40:14.802Z,990.89
2019-01-17T07:41:24.850Z,990.9
2019-01-17T07:42:34.904Z,990.96
2019-01-17T07:43:44.955Z,990.93
2019-01-17T07:44:55.004Z,990.98
2019-01-17T07:46:04.814Z,990.98
2019-01-17T07:47:14.864Z,991
2019-01-17T07:48:25.011Z,991.03
2019-01-17T07:49:35.049Z,991.02
2019-01-17T07:50:45.211Z,991
2019-01-17T07:51:55.009Z,991.05
2019-01-17T07:53:05.065Z,991
2019-01-17T07:54:15.114Z,991.02
2019-01-17T07:55:25.166Z,991.02
2019-01-17T07:56:35.536Z,990.95
2019-01-17T07:57:45.580Z,990.98
2019-01-17T07:58:55.634Z,990.96
2019-01-17T08:00:05.675Z,990.97
2019-01-17T08:01:16.072Z,990.97
2019-01-17T08:02:26.222Z,991
2019-01-17T08:03:36.013Z,990.99
2019-01-17T08:04:45.813Z,991.03
2019-01-17T08:05:55.910Z,991.04
2019-01-17T08:07:05.952Z,990.99
2019-01-17T08:08:16.013Z,991.06
2019-01-17T08:09:25.803Z,991.06
2019-01-17T08:10:35.856Z,991.03
2019-01-17T08:11:45.952Z,991.04
2019-01-17T08:12:55.996Z,991.03
2019-01-17T08:14:06.093Z,991.08
2019-01-17T08:15:16.131Z,991.06
2019-01-17T08:16:26.170Z,991.1
2019-01-17T08:17:35.991Z,991.09
2019-01-17T08:18:45.809Z,991.04
2019-01-17T08:19:55.910Z,991.06
2019-01-17T08:21:06.612Z,991.12
2019-01-17T08:22:16.428Z,991.14
2019-01-17T08:23:26.510Z,991.18
2019-01-17T08:24:42.413Z,991.13
2019-01-17T08:25:54.238Z,991.14
2019-01-17T08:27:04.770Z,991.16
2019-01-17T08:28:14.824Z,991.11
2019-01-17T08:29:24.902Z,991.04
2019-01-17T08:30:34.988Z,991.11
2019-01-17T08:31:45.324Z,991.11
2019-01-17T08:32:55.393Z,991.07
2019-01-17T08:34:06.232Z,991.07
2019-01-17T08:35:16.302Z,991.05
2019-01-17T08:36:25.851Z,991.07
2019-01-17T08:37:36.164Z,991.04
2019-01-17T08:38:46.357Z,991.1
2019-01-17T08:39:56.175Z,991.06
2019-01-17T08:41:06.346Z,991.04
2019-01-17T08:42:16.403Z,991.04
2019-01-17T08:43:26.527Z,991.05
2019-01-17T08:44:36.599Z,991.06
2019-01-17T08:45:46.678Z,991.04
2019-01-17T08:46:56.224Z,991.05
2019-01-17T08:48:06.505Z,991.08
2019-01-17T08:49:16.784Z,991.12
2019-01-17T08:50:26.375Z,991.11
2019-01-17T08:51:36.445Z,991.18
2019-01-17T08:52:46.255Z,991.21
2019-01-17T08:53:56.065Z,991.18
2019-01-17T08:55:06.331Z,991.17
2019-01-17T08:56:16.408Z,991.16
2019-01-17T08:57:26.456Z,991.26
2019-01-17T08:58:36.519Z,991.24
2019-01-17T08:59:46.604Z,991.2
2019-01-17T09:00:56.500Z,991.24
2019-01-17T09:02:06.998Z,991.2
2019-01-17T09:03:17.131Z,991.24
2019-01-17T09:04:26.945Z,991.2
2019-01-17T09:05:37.249Z,991.2
2019-01-17T09:06:47.386Z,991.14
2019-01-17T09:07:57.471Z,991.14
2019-01-17T09:09:08.825Z,991.16
2019-01-17T09:10:18.980Z,991.1
2019-01-17T09:11:29.079Z,991.18
2019-01-17T09:12:39.137Z,991.24
2019-01-17T09:13:49.214Z,991.29
2019-01-17T09:14:59.263Z,991.2
2019-01-17T09:16:09.341Z,991.2
2019-01-17T09:17:19.158Z,991.14
2019-01-17T09:18:29.601Z,991.23
2019-01-17T09:19:39.691Z,991.24
2019-01-17T09:20:49.797Z,991.25
2019-01-17T09:21:59.874Z,991.2
2019-01-17T09:23:09.702Z,991.22
2019-01-17T09:24:19.775Z,991.23
2019-01-17T09:25:29.849Z,991.2
2019-01-17T09:26:39.964Z,991.21
2019-01-17T09:27:50.097Z,991.24
2019-01-17T09:29:03.336Z,991.29
2019-01-17T09:30:13.440Z,991
2019-01-17T09:31:23.510Z,991.28
2019-01-17T09:32:34.088Z,991.26
2019-01-17T09:33:44.162Z,991.19
2019-01-17T09:34:54.273Z,991.18
2019-01-17T09:36:04.382Z,991.16
2019-01-17T09:37:14.197Z,991.18
2019-01-17T09:38:24.297Z,991.09
2019-01-17T09:39:34.360Z,991.15
2019-01-17T09:40:44.182Z,991.14
2019-01-17T09:41:54.355Z,991.13
2019-01-17T09:43:04.159Z,991.25
2019-01-17T09:44:14.277Z,991.09
2019-01-17T09:45:24.128Z,991.1
2019-01-17T09:46:34.224Z,991.07
2019-01-17T09:47:44.313Z,990.99
2019-01-17T09:48:54.390Z,990.95
2019-01-17T09:50:06.841Z,991.03
2019-01-17T09:51:16.978Z,991.03
2019-01-17T09:52:27.053Z,991.02
2019-01-17T09:53:37.159Z,990.99
2019-01-17T09:54:47.231Z,990.98
2019-01-17T09:55:57.344Z,991.06
2019-01-17T09:57:09.525Z,991.04
2019-01-17T09:58:19.675Z,991.05
2019-01-17T09:59:29.809Z,991.1
2019-01-17T10:00:39.886Z,991.03
2019-01-17T10:01:49.963Z,991.08
2019-01-17T10:03:00.033Z,990.94
2019-01-17T10:04:09.846Z,991
2019-01-17T10:05:19.668Z,990.91
2019-01-17T10:06:29.230Z,990.95
2019-01-17T10:07:39.356Z,990.96
2019-01-17T10:08:50.749Z,991
2019-01-17T10:10:03.568Z,991.01
2019-01-17T10:11:13.711Z,990.91
2019-01-17T10:12:23.520Z,990.97
2019-01-17T10:13:33.579Z,990.94
2019-01-17T10:14:44.256Z,990.94
2019-01-17T10:15:54.553Z,990.93
2019-01-17T10:17:04.670Z,990.98
2019-01-17T10:18:15.059Z,990.98
2019-01-17T10:19:25.167Z,990.94
2019-01-17T10:20:35.228Z,990.94
2019-01-17T10:21:45.300Z,990.87
2019-01-17T10:22:55.429Z,990.89
2019-01-17T10:24:05.633Z,990.87
2019-01-17T10:25:15.721Z,990.9
2019-01-17T10:26:25.543Z,990.85
2019-01-17T10:27:35.397Z,990.82
2019-01-17T10:28:45.439Z,990.81
2019-01-17T10:29:55.517Z,990.83
2019-01-17T10:31:07.518Z,990.86
2019-01-17T10:32:17.597Z,990.92
2019-01-17T10:33:27.158Z,990.92
2019-01-17T10:34:37.229Z,990.94
2019-01-17T10:35:47.311Z,990.95
2019-01-17T10:36:57.374Z,990.84
2019-01-17T10:38:08.883Z,990.86
2019-01-17T10:39:18.948Z,990.85
2019-01-17T10:40:29.082Z,990.83
2019-01-17T10:41:39.405Z,990.81
2019-01-17T10:42:49.476Z,990.85
2019-01-17T10:43:59.286Z,990.82
2019-01-17T10:45:10.361Z,990.85
2019-01-17T10:46:20.434Z,990.86
2019-01-17T10:47:30.266Z,990.9
2019-01-17T10:48:40.399Z,990.85
2019-01-17T10:49:50.235Z,990.73
2019-01-17T10:51:00.333Z,990.8
2019-01-17T10:52:10.145Z,990.81
2019-01-17T10:53:20.243Z,990.73
2019-01-17T10:54:30.419Z,990.73
2019-01-17T10:55:40.483Z,990.68
2019-01-17T10:56:50.550Z,990.72
2019-01-17T10:58:00.668Z,990.62
2019-01-17T10:59:10.820Z,990.6
2019-01-17T11:00:21.032Z,990.58
2019-01-17T11:01:31.120Z,990.58
2019-01-17T11:02:40.944Z,990.58
2019-01-17T11:03:50.814Z,990.58
2019-01-17T11:05:00.890Z,990.54
2019-01-17T11:06:10.696Z,990.49
2019-01-17T11:07:20.744Z,990.48
2019-01-17T11:08:30.857Z,990.45
2019-01-17T11:09:40.738Z,990.49
2019-01-17T11:10:50.843Z,990.47
2019-01-17T11:12:00.917Z,990.47
2019-01-17T11:13:10.710Z,990.44
2019-01-17T11:14:20.822Z,990.38
2019-01-17T11:15:31.016Z,990.41
2019-01-17T11:16:41.018Z,990.43
2019-01-17T11:17:51.191Z,990.39
2019-01-17T11:19:04.255Z,990.37
2019-01-17T11:20:13.806Z,990.39
2019-01-17T11:21:24.008Z,990.39
2019-01-17T11:22:34.079Z,990.34
2019-01-17T11:23:43.901Z,990.27
2019-01-17T11:24:53.961Z,990.37
2019-01-17T11:26:05.306Z,990.26
2019-01-17T11:27:14.873Z,990.27
2019-01-17T11:28:25.075Z,990.25
2019-01-17T11:29:35.170Z,990.22
2019-01-17T11:30:45.219Z,990.18
2019-01-17T11:31:55.280Z,990.22
2019-01-17T11:33:05.755Z,990.2
2019-01-17T11:34:15.884Z,990.13
2019-01-17T11:35:25.683Z,990.12
2019-01-17T11:36:35.981Z,990.03
2019-01-17T11:37:46.034Z,990.02
2019-01-17T11:38:56.146Z,990.06
2019-01-17T11:40:06.315Z,990.02
2019-01-17T11:41:16.394Z,990.07
2019-01-17T11:42:26.201Z,990.09
2019-01-17T11:43:36.271Z,990.05
2019-01-17T11:44:46.336Z,990.03
2019-01-17T11:45:56.384Z,990.02
2019-01-17T11:47:06.720Z,990.08
2019-01-17T11:48:16.283Z,990.12
2019-01-17T11:49:26.351Z,990.05
2019-01-17T11:50:36.489Z,990.06
2019-01-17T11:51:46.081Z,990.06
2019-01-17T11:52:55.886Z,990.08
2019-01-17T11:54:05.758Z,990.05
2019-01-17T11:55:15.819Z,990.08
2019-01-17T11:56:26.189Z,990.03
2019-01-17T11:57:41.561Z,989.97
2019-01-17T11:58:51.390Z,989.98
2019-01-17T12:00:07.996Z,989.98
2019-01-17T12:01:18.959Z,989.96
2019-01-17T12:02:29.036Z,989.92
2019-01-17T12:03:44.142Z,989.92
2019-01-17T12:04:53.950Z,989.91
2019-01-17T12:06:04.516Z,989.9
2019-01-17T12:07:14.654Z,989.89
2019-01-17T12:08:25.111Z,989.88
2019-01-17T12:09:35.283Z,989.88
2019-01-17T12:10:45.939Z,989.8
2019-01-17T12:11:55.773Z,989.75
2019-01-17T12:13:06.683Z,989.75
2019-01-17T12:14:22.481Z,989.76
2019-01-17T12:15:32.573Z,989.68
2019-01-17T12:16:42.765Z,989.69
2019-01-17T12:17:52.951Z,989.64
2019-01-17T12:19:03.167Z,989.63
2019-01-17T12:20:13.246Z,989.59
2019-01-17T12:21:23.344Z,989.57
2019-01-17T12:22:33.159Z,989.6
2019-01-17T12:23:43.234Z,989.58
2019-01-17T12:24:53.358Z,989.53
2019-01-17T12:26:04.318Z,989.51
2019-01-17T12:27:14.403Z,989.54
2019-01-17T12:28:24.683Z,989.51
2019-01-17T12:29:34.755Z,989.5
2019-01-17T12:30:44.842Z,989.47
2019-01-17T12:31:54.649Z,989.5
2019-01-17T12:33:04.731Z,989.45
2019-01-17T12:34:15.076Z,989.44
2019-01-17T12:35:24.914Z,989.43
2019-01-17T12:36:35.002Z,989.47
2019-01-17T12:37:45.189Z,989.46
2019-01-17T12:38:55.297Z,989.52
2019-01-17T12:40:06.314Z,989.46
2019-01-17T12:41:16.581Z,989.49
2019-01-17T12:42:26.130Z,989.47
2019-01-17T12:43:36.441Z,989.48
2019-01-17T12:44:46.494Z,989.47
2019-01-17T12:45:56.559Z,989.45
2019-01-17T12:47:06.635Z,989.47
2019-01-17T12:48:16.240Z,989.44
2019-01-17T12:49:26.394Z,989.4
2019-01-17T12:50:36.455Z,989.4
2019-01-17T12:51:46.324Z,989.37
2019-01-17T12:52:55.871Z,989.38
2019-01-17T12:54:06.763Z,989.39
2019-01-17T12:55:16.821Z,989.35
2019-01-17T12:56:26.889Z,989.38
2019-01-17T12:57:36.994Z,989.33
2019-01-17T12:58:47.060Z,989.3
2019-01-17T12:59:57.134Z,989.26
2019-01-17T13:01:13.626Z,989.23
2019-01-17T13:02:23.892Z,989.21
2019-01-17T13:03:33.945Z,989.2
2019-01-17T13:04:44.064Z,989.22
2019-01-17T13:05:53.948Z,989.2
2019-01-17T13:07:05.133Z,989.19
2019-01-17T13:08:15.189Z,989.2
2019-01-17T13:09:25.326Z,989.14
2019-01-17T13:10:35.406Z,989.15
2019-01-17T13:11:45.477Z,989.14
2019-01-17T13:12:55.318Z,989.18
2019-01-17T13:14:05.621Z,989.13
2019-01-17T13:15:16.157Z,989.05
2019-01-17T13:16:26.234Z,989.12
2019-01-17T13:17:36.292Z,989.15
2019-01-17T13:18:46.352Z,989.08
2019-01-17T13:19:56.674Z,989.06
2019-01-17T13:21:07.772Z,989.1
2019-01-17T13:22:18.133Z,989.12
2019-01-17T13:23:27.940Z,989.11
2019-01-17T13:24:38.036Z,989.16
2019-01-17T13:25:48.280Z,989.17
2019-01-17T13:27:00.814Z,989.16
2019-01-17T13:28:11.007Z,989.13
2019-01-17T13:29:21.116Z,989.09
2019-01-17T13:30:31.274Z,989.15
2019-01-17T13:31:41.557Z,989.15
2019-01-17T13:32:51.613Z,989.08
2019-01-17T13:34:01.628Z,989.08
2019-01-17T13:35:11.782Z,989.06
2019-01-17T13:36:22.128Z,989.05
2019-01-17T13:37:32.242Z,989.01
2019-01-17T13:38:42.313Z,989
2019-01-17T13:39:52.500Z,989.09
2019-01-17T13:41:02.552Z,989.09
2019-01-17T13:42:12.431Z,989.09
2019-01-17T13:43:28.298Z,989.02
2019-01-17T13:44:38.375Z,988.99
2019-01-17T13:45:48.451Z,988.99
2019-01-17T13:46:58.577Z,988.97
2019-01-17T13:48:08.409Z,989.01
2019-01-17T13:49:18.506Z,989.03
2019-01-17T13:50:28.593Z,989.01
2019-01-17T13:51:39.761Z,989.01
2019-01-17T13:52:49.815Z,989.05
2019-01-17T13:53:59.666Z,989.01
2019-01-17T13:55:09.756Z,989.04
2019-01-17T13:56:19.830Z,989.06
2019-01-17T13:57:29.935Z,988.97
2019-01-17T13:58:40.014Z,988.93
2019-01-17T13:59:49.803Z,988.96
2019-01-17T14:00:59.909Z,988.97
2019-01-17T14:02:10.235Z,988.94
2019-01-17T14:03:20.102Z,988.92
2019-01-17T14:04:29.918Z,988.91
2019-01-17T14:05:39.983Z,988.9
2019-01-17T14:06:50.162Z,988.93
2019-01-17T14:08:03.301Z,988.91
2019-01-17T14:09:13.431Z,988.89
2019-01-17T14:10:23.553Z,988.89
2019-01-17T14:11:33.669Z,988.85
2019-01-17T14:12:43.765Z,988.85
2019-01-17T14:13:53.843Z,988.9
2019-01-17T14:15:03.928Z,988.91
2019-01-17T14:16:14.000Z,988.95
2019-01-17T14:17:24.118Z,988.96
2019-01-17T14:18:34.200Z,988.94
2019-01-17T14:19:44.272Z,988.94
2019-01-17T14:20:54.884Z,988.92
2019-01-17T14:22:04.970Z,988.94
2019-01-17T14:23:15.058Z,988.93
2019-01-17T14:24:25.008Z,988.91
2019-01-17T14:25:35.091Z,988.9
2019-01-17T14:26:45.166Z,988.87
2019-01-17T14:27:55.280Z,988.83
2019-01-17T14:29:06.214Z,988.86
2019-01-17T14:30:15.763Z,988.88
2019-01-17T14:31:25.822Z,988.87
2019-01-17T14:32:36.217Z,988.89
2019-01-17T14:33:46.313Z,988.89
2019-01-17T14:34:56.424Z,988.94
2019-01-17T14:36:06.790Z,988.95
2019-01-17T14:37:16.843Z,988.97
2019-01-17T14:38:26.903Z,988.96
2019-01-17T14:39:37.173Z,989
2019-01-17T14:40:47.308Z,988.98
2019-01-17T14:41:57.376Z,988.96
2019-01-17T14:43:07.456Z,989
2019-01-17T14:44:17.571Z,988.98
2019-01-17T14:45:27.672Z,988.96
2019-01-17T14:46:37.505Z,988.95
2019-01-17T14:47:47.600Z,988.96
2019-01-17T14:48:57.666Z,988.95
2019-01-17T14:50:07.232Z,988.93
2019-01-17T14:51:17.364Z,988.94
2019-01-17T14:52:27.238Z,988.93
2019-01-17T14:53:37.314Z,988.87
2019-01-17T14:54:47.396Z,988.86
2019-01-17T14:55:57.482Z,988.87
2019-01-17T14:57:08.586Z,988.86
2019-01-17T14:58:23.594Z,988.89
2019-01-17T14:59:33.664Z,988.82
2019-01-17T15:00:43.965Z,988.78
2019-01-17T15:01:54.039Z,988.82
2019-01-17T15:03:04.305Z,988.76
2019-01-17T15:04:14.420Z,988.76
2019-01-17T15:05:24.485Z,988.78
2019-01-17T15:06:34.562Z,988.84
2019-01-17T15:07:44.647Z,988.86
2019-01-17T15:08:54.714Z,988.85
2019-01-17T15:10:04.870Z,988.83